Time;durP1;ratioP1;P1;durP2;ratioP2;P2;SDS_P1;SDS_P2;PMS_P1;PMS_P2;Temp;Humidity;BMP_temperature;BMP_pressure;BME280_temperature;BME280_humidity;BME280_pressure;Samples;Min_cycle;Max_cycle;Signal;HPM_P1;HPM_P2
2024/01/29 00:00:48;;;;;;;11.93;4.97;;;;;;;0.70;78.69;101991.19;4823924;29;20045;-65
2024/01/29 00:03:51;;;;;;;9.90;4.30;;;;;;;0.71;78.72;101995.50;4824025;29;20478;-65
2024/01/29 00:06:54;;;;;;;9.95;4.70;;;;;;;0.74;78.20;101986.97;4824219;29;20115;-65
2024/01/29 00:09:58;;;;;;;6.78;4.28;;;;;;;0.72;78.33;101980.91;4823850;29;20095;-65
2024/01/29 00:13:01;;;;;;;;;;;;;;;0.70;78.13;101978.31;4812936;29;20049;-65
2024/01/29 00:16:05;;;;;;;14.30;5.15;;;;;;;0.69;78.32;101977.44;4823856;29;19923;-65
2024/01/29 00:19:08;;;;;;;8.18;4.18;;;;;;;0.56;78.33;101980.72;4823741;29;20153;-65
2024/01/29 00:22:11;;;;;;;6.93;4.63;;;;;;;0.61;78.45;101989.38;4819239;29;20146;-65
2024/01/29 00:25:14;;;;;;;9.63;4.68;;;;;;;0.60;78.53;101987.63;4823660;29;20053;-65
2024/01/29 00:28:18;;;;;;;9.40;5.13;;;;;;;0.59;78.18;101988.50;4823740;29;20053;-65
2024/01/29 00:31:22;;;;;;;8.45;4.28;;;;;;;0.59;78.33;101985.91;4823675;29;20057;-65
2024/01/29 00:34:25;;;;;;;6.93;4.15;;;;;;;0.58;78.37;101991.06;4823665;29;20077;-65
2024/01/29 00:37:29;;;;;;;8.02;5.22;;;;;;;0.57;78.24;101990.16;4823502;29;20053;-65
2024/01/29 00:40:33;;;;;;;12.38;4.40;;;;;;;0.55;78.97;101986.72;4823461;29;20050;-65
2024/01/29 00:43:36;;;;;;;6.10;3.78;;;;;;;0.46;78.81;101999.47;4812421;29;20057;-65
2024/01/29 00:46:40;;;;;;;7.22;4.40;;;;;;;0.44;78.45;101991.72;4823552;29;20079;-65
2024/01/29 00:49:43;;;;;;;7.95;4.22;;;;;;;0.46;79.01;101992.63;4823302;29;20106;-65
2024/01/29 00:52:46;;;;;;;8.32;4.97;;;;;;;0.50;78.55;101993.53;4816035;29;20100;-65
2024/01/29 00:55:49;;;;;;;7.32;4.15;;;;;;;0.52;78.28;101996.13;4816440;29;20048;-65
2024/01/29 00:58:53;;;;;;;9.52;5.00;;;;;;;0.48;78.38;101995.22;4816717;29;20054;-65
2024/01/29 01:01:56;;;;;;;7.18;4.43;;;;;;;0.51;78.50;101992.69;4817216;29;20076;-65
2024/01/29 01:04:59;;;;;;;7.60;4.60;;;;;;;0.51;78.45;101987.53;4817594;29;20050;-65
2024/01/29 01:08:03;;;;;;;9.07;4.68;;;;;;;0.48;78.27;101987.50;4818870;29;20639;-65
2024/01/29 01:11:07;;;;;;;6.90;4.20;;;;;;;0.52;78.32;101988.41;4826468;29;20159;-65
2024/01/29 01:14:10;;;;;;;7.93;4.85;;;;;;;0.49;78.22;101993.50;4815188;29;20049;-65
2024/01/29 01:17:13;;;;;;;8.23;4.80;;;;;;;0.48;78.01;101987.50;4826290;29;20107;-65
2024/01/29 01:20:17;;;;;;;10.52;4.30;;;;;;;0.50;77.89;101990.94;4826272;29;20130;-65
2024/01/29 01:23:20;;;;;;;9.57;4.45;;;;;;;0.47;77.80;101985.75;4826256;29;20049;-65
2024/01/29 01:26:23;;;;;;;7.20;4.40;;;;;;;0.45;77.96;101978.03;4826227;29;20057;-65
2024/01/29 01:29:26;;;;;;;8.50;4.18;;;;;;;0.40;78.29;101976.25;4826189;29;20122;-65
2024/01/29 01:32:30;;;;;;;9.13;3.85;;;;;;;0.33;78.32;101977.00;4826135;29;20098;-65
2024/01/29 01:35:33;;;;;;;12.75;4.95;;;;;;;0.39;78.50;101980.53;4826158;29;20111;-65
2024/01/29 01:38:37;;;;;;;8.48;4.30;;;;;;;0.42;77.89;101980.56;4825923;29;20090;-65
2024/01/29 01:41:47;;;;;;;8.05;4.32;;;;;;;0.41;77.72;101976.25;4825998;29;20054;-65
2024/01/29 01:44:50;;;;;;;7.70;4.32;;;;;;;0.38;78.02;101981.38;4818963;29;20049;-65
2024/01/29 01:47:53;;;;;;;8.48;4.28;;;;;;;0.32;77.86;101976.16;4819394;29;20053;-65
2024/01/29 01:50:57;;;;;;;10.05;5.18;;;;;;;0.30;77.98;101979.53;4819720;29;20587;-65
2024/01/29 01:54:03;;;;;;;6.80;4.50;;;;;;;0.36;78.11;101977.06;4820071;29;20191;-65
2024/01/29 01:57:07;;;;;;;9.00;4.30;;;;;;;0.37;78.15;101978.78;4825659;29;20089;-65
2024/01/29 02:00:11;;;;;;;8.40;3.95;;;;;;;0.41;77.69;101980.53;4825984;29;20058;-65
2024/01/29 02:03:15;;;;;;;7.00;4.10;;;;;;;0.39;77.95;101975.38;4825612;29;20440;-65
2024/01/29 02:06:19;;;;;;;7.53;4.35;;;;;;;0.41;77.83;101972.81;4825619;29;20045;-65
2024/01/29 02:09:22;;;;;;;8.48;4.22;;;;;;;0.43;77.78;101973.72;4825468;29;20119;-65
2024/01/29 02:12:25;;;;;;;9.07;4.68;;;;;;;0.42;77.26;101978.00;4825527;29;20566;-65
2024/01/29 02:15:30;;;;;;;6.88;4.28;;;;;;;0.36;77.59;101969.34;4825512;29;20513;-65
2024/01/29 02:18:33;;;;;;;9.90;5.45;;;;;;;0.39;78.01;101969.38;4814186;29;20053;-65
2024/01/29 02:21:36;;;;;;;7.03;4.30;;;;;;;0.40;77.52;101965.94;4825258;29;20184;-65
2024/01/29 02:24:40;;;;;;;8.57;4.68;;;;;;;0.34;77.77;101971.00;4825279;29;20111;-65
2024/01/29 02:27:43;;;;;;;8.27;5.03;;;;;;;0.34;77.57;101969.28;4825296;29;20065;-65
2024/01/29 02:30:46;;;;;;;6.15;3.83;;;;;;;0.35;77.68;101970.16;4817925;29;20075;-65
2024/01/29 02:33:50;;;;;;;7.53;3.97;;;;;;;0.34;77.76;101971.88;4818416;29;20061;-65
2024/01/29 02:36:53;;;;;;;10.18;5.13;;;;;;;0.33;77.64;101971.88;4818606;29;20425;-65
2024/01/29 02:39:56;;;;;;;8.35;4.80;;;;;;;0.30;77.55;101982.13;4818951;29;20534;-65
2024/01/29 02:43:00;;;;;;;;;;;;;;;0.33;77.56;101969.28;4819804;29;20117;-65
2024/01/29 02:46:03;;;;;;;8.15;3.83;;;;;;;0.33;77.71;101956.44;4824478;29;19927;-65
2024/01/29 02:49:06;;;;;;;6.95;4.20;;;;;;;0.35;77.72;101959.88;4824921;29;20118;-65
2024/01/29 02:52:10;;;;;;;7.32;4.15;;;;;;;0.35;77.51;101954.72;4825002;29;20057;-65
2024/01/29 02:55:13;;;;;;;8.15;4.07;;;;;;;0.35;77.33;101965.00;4824838;29;20106;-65
2024/01/29 02:58:16;;;;;;;13.52;8.18;;;;;;;0.31;77.45;101968.41;4824729;29;20405;-65
2024/01/29 03:01:19;;;;;;;9.10;4.78;;;;;;;0.31;77.32;101964.13;4824697;29;20098;-65
2024/01/29 03:04:23;;;;;;;9.27;6.40;;;;;;;0.33;77.24;101966.72;4824918;29;20081;-65
2024/01/29 03:07:26;;;;;;;13.15;5.40;;;;;;;0.32;77.18;101959.81;4824940;29;20410;-65
2024/01/29 03:10:29;;;;;;;10.20;5.80;;;;;;;0.32;77.60;101958.13;4824730;29;20159;-65
2024/01/29 03:13:33;;;;;;;8.82;6.22;;;;;;;0.31;77.06;101958.97;4824572;29;20062;-65
2024/01/29 03:16:36;;;;;;;10.02;4.70;;;;;;;0.32;76.89;101963.28;4824501;29;20102;-65
2024/01/29 03:19:39;;;;;;;;;;;;;;;0.32;77.17;101967.53;4824904;29;20425;-65
2024/01/29 03:22:42;;;;;;;7.68;4.53;;;;;;;0.33;77.58;101957.28;4824508;29;19928;-65
2024/01/29 03:25:45;;;;;;;9.90;4.93;;;;;;;0.32;77.13;101958.13;4816854;29;20421;-65
2024/01/29 03:28:49;;;;;;;11.25;5.15;;;;;;;0.26;77.57;101952.06;4817229;29;20573;-65
2024/01/29 03:31:52;;;;;;;;;;;;;;;0.29;77.43;101952.97;4817231;29;20089;-65
2024/01/29 03:34:55;;;;;;;6.80;4.45;;;;;;;0.32;76.88;101960.72;4824329;29;19924;-65
2024/01/29 03:37:59;;;;;;;8.70;4.90;;;;;;;0.23;77.04;101960.59;4818255;29;20049;-65
2024/01/29 03:41:02;;;;;;;8.40;5.10;;;;;;;0.22;77.12;101958.84;4818729;29;20587;-65
2024/01/29 03:44:05;;;;;;;8.65;4.60;;;;;;;0.25;77.14;101952.88;4824417;29;20135;-65
2024/01/29 03:47:09;;;;;;;9.43;5.15;;;;;;;0.17;77.16;101956.22;4824150;29;20072;-65
2024/01/29 03:50:12;;;;;;;;;;;;;;;0.02;77.66;101956.00;4824502;29;20061;-65
2024/01/29 03:53:15;;;;;;;8.00;4.57;;;;;;;0.17;77.90;101955.38;4823979;29;19924;-65
2024/01/29 03:56:19;;;;;;;10.43;5.13;;;;;;;0.20;77.23;101961.41;4824021;29;20569;-65
2024/01/29 03:59:22;;;;;;;9.88;5.22;;;;;;;0.22;77.12;101954.59;4823918;29;20050;-65
2024/01/29 04:02:25;;;;;;;7.15;4.28;;;;;;;0.26;77.48;101954.63;4823910;29;20053;-65
2024/01/29 04:05:29;;;;;;;10.65;5.43;;;;;;;0.22;77.03;101952.00;4823983;29;20044;-65
2024/01/29 04:08:32;;;;;;;9.27;4.90;;;;;;;0.22;77.57;101957.16;4823812;29;20466;-65
2024/01/29 04:11:36;;;;;;;9.85;5.30;;;;;;;0.23;77.26;101964.03;4823880;29;20578;-65
2024/01/29 04:14:39;;;;;;;8.00;4.38;;;;;;;0.21;76.78;101960.56;4823809;29;20594;-65
2024/01/29 04:17:43;;;;;;;7.38;4.47;;;;;;;0.15;77.19;101957.03;4823712;29;20130;-65
2024/01/29 04:20:46;;;;;;;8.65;5.18;;;;;;;0.14;77.23;101965.59;4816247;29;20077;-66
2024/01/29 04:23:49;;;;;;;8.02;4.72;;;;;;;0.15;77.19;101960.47;4816556;29;20111;-65
2024/01/29 04:26:52;;;;;;;8.93;5.00;;;;;;;0.13;77.49;101966.47;4817252;29;20079;-65
2024/01/29 04:29:56;;;;;;;9.60;5.72;;;;;;;0.05;77.82;101966.34;4817398;29;20041;-65
2024/01/29 04:32:59;;;;;;;8.57;4.47;;;;;;;0.10;77.59;101962.13;4818030;29;20057;-65
2024/01/29 04:36:03;;;;;;;8.80;4.75;;;;;;;0.13;77.16;101964.75;4818119;29;20052;-65
2024/01/29 04:39:06;;;;;;;8.48;5.35;;;;;;;0.07;77.12;101961.22;4812073;29;20134;-65
2024/01/29 04:42:09;;;;;;;11.98;5.22;;;;;;;0.08;77.38;101957.81;4812393;29;20049;-65
2024/01/29 04:45:12;;;;;;;;;;;;;;;0.09;77.55;101957.81;4827494;29;20578;-67
2024/01/29 04:48:15;;;;;;;9.80;3.70;;;;;;;0.10;77.55;101951.84;4826829;29;19923;-65
2024/01/29 04:51:20;;;;;;;8.05;4.63;;;;;;;0.01;77.41;101974.84;4826574;29;20058;-67
2024/01/29 04:54:23;;;;;;;9.18;5.35;;;;;;;0.07;77.21;101963.81;4826062;29;20080;-66
2024/01/29 04:57:26;;;;;;;10.52;5.43;;;;;;;0.10;76.74;101966.41;4826579;29;20115;-65
2024/01/29 05:00:30;;;;;;;;;;;;;;;0.09;77.11;101956.94;4826922;29;20059;-65
2024/01/29 05:03:32;;;;;;;7.78;4.57;;;;;;;0.05;77.23;101971.47;4826747;29;20012;-65
2024/01/29 05:06:36;;;;;;;8.65;4.70;;;;;;;0.04;77.07;101971.47;4826549;29;20133;-65
2024/01/29 05:09:39;;;;;;;9.80;5.60;;;;;;;0.03;77.12;101973.16;4826397;29;20049;-66
2024/01/29 05:12:42;;;;;;;11.85;5.70;;;;;;;0.05;77.29;101976.63;4815151;29;20122;-65
2024/01/29 05:15:46;;;;;;;10.30;5.85;;;;;;;0.04;77.33;101974.03;4818879;29;20049;-66
2024/01/29 05:18:49;;;;;;;10.13;4.78;;;;;;;0.08;77.17;101971.53;4817937;29;20131;-68
2024/01/29 05:21:53;;;;;;;9.95;5.55;;;;;;;0.05;77.09;101976.63;4819579;29;20066;-66
2024/01/29 05:24:56;;;;;;;8.25;5.15;;;;;;;0.08;76.89;101971.53;4819977;29;20053;-66
2024/01/29 05:28:00;;;;;;;8.35;4.50;;;;;;;0.08;77.19;101981.81;4820464;29;20044;-66
2024/01/29 05:31:03;;;;;;;11.77;5.57;;;;;;;0.05;77.01;101979.19;4820793;29;20118;-68
2024/01/29 05:34:07;;;;;;;10.43;5.07;;;;;;;-0.09;77.26;101983.28;4826003;29;20073;-66
2024/01/29 05:37:15;;;;;;;7.30;5.35;;;;;;;-0.02;77.53;101970.53;4825872;29;20060;-66
2024/01/29 05:40:19;;;;;;;11.48;4.93;;;;;;;0.05;76.89;101991.19;4825922;29;20528;-66
2024/01/29 05:43:22;;;;;;;10.50;5.05;;;;;;;0.04;77.08;101985.19;4826194;29;20085;-66
2024/01/29 05:46:25;;;;;;;6.10;4.00;;;;;;;0.08;77.17;101976.66;4825753;29;20053;-66
2024/01/29 05:49:28;;;;;;;8.63;5.15;;;;;;;0.11;77.45;101976.72;4825575;29;20115;-66
2024/01/29 05:52:32;;;;;;;9.68;5.07;;;;;;;0.12;77.53;101968.16;4825735;29;20401;-65
2024/01/29 05:55:35;;;;;;;11.30;4.97;;;;;;;0.16;77.77;101977.66;4824930;29;20144;-70
2024/01/29 05:58:40;;;;;;;10.88;5.70;;;;;;;0.19;77.02;101985.41;4825682;29;20054;-65
2024/01/29 06:01:43;;;;;;;14.57;5.90;;;;;;;0.17;77.45;101978.50;4825719;29;20114;-66
2024/01/29 06:04:46;;;;;;;11.95;5.43;;;;;;;0.16;77.42;101971.63;4818291;29;20135;-64
2024/01/29 06:07:51;;;;;;;8.48;5.32;;;;;;;0.19;77.41;101964.84;4818861;29;20451;-65
2024/01/29 06:10:55;;;;;;;11.80;6.25;;;;;;;0.17;77.19;101971.66;4819054;29;20059;-65
2024/01/29 06:13:59;;;;;;;9.07;4.80;;;;;;;0.12;77.49;101968.16;4819601;29;20054;-65
2024/01/29 06:17:02;;;;;;;11.50;4.85;;;;;;;0.16;77.93;101974.19;4819569;29;20137;-66
2024/01/29 06:20:07;;;;;;;9.23;5.45;;;;;;;0.17;78.00;101979.38;4825320;29;20187;-66
2024/01/29 06:23:12;;;;;;;7.97;5.22;;;;;;;0.20;77.47;101982.00;4825318;29;20071;-66
2024/01/29 06:26:17;;;;;;;8.80;5.40;;;;;;;0.17;77.50;101978.50;4825272;29;20049;-66
2024/01/29 06:29:20;;;;;;;9.98;4.90;;;;;;;0.13;77.87;101980.19;4825190;29;20054;-66
2024/01/29 06:32:25;;;;;;;9.52;5.18;;;;;;;0.14;77.79;101984.47;4825156;29;20389;-66
2024/01/29 06:35:30;;;;;;;7.75;4.78;;;;;;;0.14;78.10;101989.63;4825064;29;20134;-65
2024/01/29 06:38:33;;;;;;;13.10;6.63;;;;;;;0.13;77.99;101995.63;4823733;29;20089;-66
2024/01/29 06:41:37;;;;;;;14.20;7.47;;;;;;;0.16;78.05;101989.63;4811753;29;20478;-65
2024/01/29 06:44:41;;;;;;;10.93;6.85;;;;;;;0.09;78.19;101998.97;4822064;29;20054;-65
2024/01/29 06:47:45;;;;;;;12.85;5.90;;;;;;;0.13;78.13;102005.03;4823349;29;20126;-65
2024/01/29 06:50:48;;;;;;;11.77;7.05;;;;;;;0.17;78.24;102012.81;4816463;29;20073;-65
2024/01/29 06:53:51;;;;;;;11.10;6.30;;;;;;;0.16;78.00;102011.09;4817132;29;20057;-65
2024/01/29 06:56:55;;;;;;;;;;;;;;;0.16;78.24;102021.38;4806253;29;20584;-65
2024/01/29 06:59:58;;;;;;;9.55;5.85;;;;;;;0.19;78.08;102023.09;4806369;29;19928;-65
2024/01/29 07:03:02;;;;;;;10.02;6.05;;;;;;;0.16;77.99;102023.94;4805688;29;20095;-65
2024/01/29 07:06:05;;;;;;;10.25;6.55;;;;;;;0.12;78.14;102029.00;4804603;29;20120;-65
2024/01/29 07:09:10;;;;;;;9.25;6.25;;;;;;;0.08;78.26;102028.09;4804451;29;20051;-65
2024/01/29 07:12:15;;;;;;;13.23;7.63;;;;;;;-0.02;78.64;102032.25;4809438;29;20073;-65
2024/01/29 07:15:18;;;;;;;17.42;8.77;;;;;;;-0.13;78.66;102038.06;4804433;29;20130;-65
2024/01/29 07:18:22;;;;;;;11.43;7.15;;;;;;;-0.27;79.52;102037.84;4803773;29;20698;-65
2024/01/29 07:21:26;;;;;;;11.77;5.95;;;;;;;-0.15;79.69;102032.91;4803009;29;20572;-65
2024/01/29 07:24:32;;;;;;;12.68;6.88;;;;;;;-0.06;79.29;102042.47;4804048;29;20057;-65
2024/01/29 07:27:36;;;;;;;8.75;5.90;;;;;;;0.01;78.81;102040.84;4803921;29;20425;-65
2024/01/29 07:30:39;;;;;;;11.57;6.95;;;;;;;0.04;78.87;102041.78;4804197;29;20111;-65
2024/01/29 07:33:43;;;;;;;13.85;6.85;;;;;;;0.06;78.74;102054.63;4804298;29;20172;-64
2024/01/29 07:36:47;;;;;;;9.48;6.57;;;;;;;0.12;79.01;102054.72;4804348;29;20053;-65
2024/01/29 07:39:51;;;;;;;14.65;7.85;;;;;;;0.15;78.60;102040.22;4804650;29;20049;-66
2024/01/29 07:42:54;;;;;;;12.60;7.88;;;;;;;0.19;78.29;102047.16;4804523;29;20487;-65
2024/01/29 07:45:57;;;;;;;17.85;9.35;;;;;;;0.20;78.39;102042.88;4804289;29;20118;-65
2024/01/29 07:49:03;;;;;;;;;;;;;;;0.18;78.49;102045.41;4804446;29;20057;-65
2024/01/29 07:52:06;;;;;;;14.15;8.90;;;;;;;0.23;78.46;102046.34;4804476;29;19924;-64
2024/01/29 07:55:10;;;;;;;17.92;10.32;;;;;;;0.26;78.16;102049.81;4804045;29;20092;-67
2024/01/29 07:58:13;;;;;;;13.73;7.20;;;;;;;0.23;78.87;102042.91;4803866;29;20061;-65
2024/01/29 08:01:16;;;;;;;11.93;8.00;;;;;;;0.22;79.70;102036.00;4803868;29;20532;-65
2024/01/29 08:04:20;;;;;;;;;;;;;;;0.29;79.30;102036.97;4804620;29;20199;-64
2024/01/29 08:07:23;;;;;;;9.00;6.20;;;;;;;0.36;78.48;102046.53;4803876;29;20312;-65
2024/01/29 08:10:26;;;;;;;10.23;6.00;;;;;;;0.36;78.64;102047.38;4803687;29;20607;-65
2024/01/29 08:13:29;;;;;;;10.85;6.30;;;;;;;0.39;78.14;102041.44;4803972;29;20513;-65
2024/01/29 08:16:33;;;;;;;7.35;5.22;;;;;;;0.40;78.35;102048.28;4803944;29;20144;-65
2024/01/29 08:19:36;;;;;;;11.80;5.60;;;;;;;0.40;78.17;102051.72;4807543;29;20045;-67
2024/01/29 08:22:40;;;;;;;9.73;5.13;;;;;;;0.42;78.20;102044.03;4806835;29;20521;-65
2024/01/29 08:25:43;;;;;;;9.50;5.47;;;;;;;0.39;78.67;102044.00;4807760;29;20188;-65
2024/01/29 08:28:46;;;;;;;10.50;6.47;;;;;;;0.46;78.47;102049.25;4807683;29;20080;-65
2024/01/29 08:31:51;;;;;;;9.20;5.00;;;;;;;0.49;78.08;102048.41;4807481;29;20050;-64
2024/01/29 08:34:54;;;;;;;10.48;5.88;;;;;;;0.49;78.65;102043.28;4807647;29;20054;-66
2024/01/29 08:37:57;;;;;;;9.20;5.63;;;;;;;0.53;78.47;102044.19;4807105;29;20053;-65
2024/01/29 08:41:00;;;;;;;10.10;5.78;;;;;;;0.59;78.32;102041.69;4806851;29;20111;-65
2024/01/29 08:44:05;;;;;;;9.73;5.90;;;;;;;0.59;78.36;102045.13;4805333;29;20224;-65
2024/01/29 08:47:08;;;;;;;10.13;5.85;;;;;;;0.64;78.34;102043.47;4805543;29;20115;-65
2024/01/29 08:50:11;;;;;;;11.52;5.57;;;;;;;0.65;78.48;102042.63;4805092;29;20115;-65
2024/01/29 08:53:15;;;;;;;11.48;6.82;;;;;;;0.69;78.66;102039.22;4806475;29;20084;-65
2024/01/29 08:56:18;;;;;;;9.45;5.57;;;;;;;0.74;78.03;102051.31;4807051;29;20162;-65
2024/01/29 08:59:21;;;;;;;9.93;5.53;;;;;;;0.76;78.31;102047.03;4807446;29;20119;-65
2024/01/29 09:02:27;;;;;;;9.55;5.43;;;;;;;0.78;78.14;102047.94;4807361;29;20061;-65
2024/01/29 09:05:31;;;;;;;13.38;7.78;;;;;;;0.80;78.37;102056.53;4806989;29;20200;-65
2024/01/29 09:08:34;;;;;;;27.42;13.95;;;;;;;0.85;78.23;102049.72;4806988;29;20046;-65
2024/01/29 09:11:37;;;;;;;13.90;7.10;;;;;;;0.86;78.46;102056.59;4806823;29;20126;-65
2024/01/29 09:14:41;;;;;;;68.82;32.47;;;;;;;0.89;78.69;102048.91;4806989;29;20050;-65
2024/01/29 09:17:44;;;;;;;38.42;18.88;;;;;;;0.93;78.56;102049.00;4806627;29;20536;-65
2024/01/29 09:20:47;;;;;;;12.20;9.15;;;;;;;1.00;78.50;102057.66;4806249;29;20120;-65
2024/01/29 09:23:51;;;;;;;13.80;8.50;;;;;;;1.05;78.64;102061.13;4806535;29;20046;-65
2024/01/29 09:26:54;;;;;;;18.92;11.30;;;;;;;1.04;79.20;102055.97;4806732;29;20663;-67
2024/01/29 09:29:58;;;;;;;16.38;9.60;;;;;;;1.13;78.98;102056.94;4805497;29;20184;-66
2024/01/29 09:33:01;;;;;;;11.52;7.47;;;;;;;1.21;79.26;102059.59;4806501;29;20142;-66
2024/01/29 09:36:05;;;;;;;9.63;5.93;;;;;;;1.28;79.46;102050.22;4806773;29;20050;-65
2024/01/29 09:39:08;;;;;;;;;;;;;;;1.35;79.46;102046.88;4806926;29;20106;-65
2024/01/29 09:42:18;;;;;;;14.18;7.22;;;;;;;1.44;79.20;102048.69;4806553;29;19924;-65
2024/01/29 09:45:24;;;;;;;11.48;5.78;;;;;;;1.50;79.17;102057.34;4806246;29;20053;-66
2024/01/29 09:48:28;;;;;;;9.77;6.88;;;;;;;1.57;79.50;102058.25;4806485;29;20058;-65
2024/01/29 09:51:33;;;;;;;10.98;6.80;;;;;;;1.66;79.63;102052.28;4787656;30;20527;-65
2024/01/29 09:54:36;;;;;;;10.10;6.63;;;;;;;1.76;79.74;102054.13;4787517;30;20058;-65
2024/01/29 09:57:39;;;;;;;12.85;6.70;;;;;;;1.84;80.40;102055.03;4787669;30;20555;-73
2024/01/29 10:00:43;;;;;;;11.07;7.43;;;;;;;1.77;80.06;102055.84;4788143;30;20075;-80
2024/01/29 10:03:48;;;;;;;;;;;;;;;1.86;80.52;102055.94;4788207;30;20142;-76
2024/01/29 10:06:53;;;;;;;14.32;7.78;;;;;;;1.94;81.16;102053.41;4787847;30;20068;-76
2024/01/29 10:09:56;;;;;;;;;;;;;;;2.04;81.78;102063.81;4788337;30;20139;-79
2024/01/29 10:13:07;;;;;;;14.90;7.20;;;;;;;2.01;82.41;102066.38;4787863;30;19967;-73
2024/01/29 10:16:10;;;;;;;10.38;7.15;;;;;;;2.14;83.00;102069.00;4788090;30;20083;-73
2024/01/29 10:19:14;;;;;;;14.15;7.35;;;;;;;2.35;82.79;102063.16;4776278;30;20149;-69
2024/01/29 10:22:21;;;;;;;13.80;7.80;;;;;;;2.51;82.48;102049.47;4787335;30;20054;-67
2024/01/29 10:25:25;;;;;;;11.23;7.63;;;;;;;2.69;82.31;102051.28;4787551;30;20100;-75
2024/01/29 10:28:28;;;;;;;12.00;8.02;;;;;;;2.79;81.69;102058.22;4787495;30;20414;-67
2024/01/29 10:31:32;;;;;;;11.48;7.38;;;;;;;2.90;81.71;102056.53;4787474;30;20109;-67
2024/01/29 10:34:36;;;;;;;10.95;7.80;;;;;;;3.03;81.88;102053.16;4787942;30;20466;-68
2024/01/29 10:37:44;;;;;;;12.98;7.85;;;;;;;3.11;82.12;102054.91;4787475;30;20111;-68
2024/01/29 10:40:48;;;;;;;12.73;6.85;;;;;;;3.26;81.94;102047.19;4787090;29;20135;-69
2024/01/29 10:43:52;;;;;;;10.60;6.40;;;;;;;3.42;82.27;102053.25;4787748;30;20426;-68
2024/01/29 10:47:00;;;;;;;12.25;7.15;;;;;;;3.53;82.14;102050.69;4787763;30;20079;-67
2024/01/29 10:50:03;;;;;;;10.00;7.45;;;;;;;3.65;82.15;102043.78;4795595;29;20144;-67
2024/01/29 10:53:07;;;;;;;12.88;7.25;;;;;;;3.75;81.82;102044.66;4805413;29;20049;-67
2024/01/29 10:56:12;;;;;;;12.00;7.88;;;;;;;3.82;81.54;102040.34;4805390;29;20049;-68
2024/01/29 10:59:18;;;;;;;11.40;7.18;;;;;;;3.88;81.36;102032.59;4790180;29;20095;-68
2024/01/29 11:02:21;;;;;;;9.93;7.05;;;;;;;3.91;81.09;102025.69;4805358;29;20537;-68
2024/01/29 11:05:25;;;;;;;11.80;7.10;;;;;;;3.96;81.77;102031.72;4805324;29;20145;-77
2024/01/29 11:08:33;;;;;;;12.55;7.28;;;;;;;4.00;83.07;102024.81;4805144;29;20095;-68
2024/01/29 11:11:38;;;;;;;11.43;8.15;;;;;;;4.15;82.97;102019.63;4805283;29;20058;-67
2024/01/29 11:14:47;;;;;;;14.82;7.63;;;;;;;4.23;82.76;102019.59;4805040;29;20049;-67
2024/01/29 11:17:50;;;;;;;20.02;12.18;;;;;;;4.29;82.87;102016.13;4805086;29;20068;-67
2024/01/29 11:20:56;;;;;;;12.43;8.18;;;;;;;4.41;82.75;102006.59;4805224;29;20489;-67
2024/01/29 11:23:59;;;;;;;11.98;7.60;;;;;;;4.54;82.74;102006.56;4805139;29;20138;-67
2024/01/29 11:27:09;;;;;;;10.02;6.60;;;;;;;4.64;82.34;102005.66;4804866;29;20046;-67
2024/01/29 11:30:16;;;;;;;10.02;7.05;;;;;;;4.73;83.11;102003.03;4805012;29;20518;-68
2024/01/29 11:33:20;;;;;;;11.05;7.25;;;;;;;4.83;82.58;101999.53;4793621;29;20081;-67
2024/01/29 11:36:23;;;;;;;11.15;7.40;;;;;;;4.86;82.13;101996.91;4804921;29;20165;-68
2024/01/29 11:39:27;;;;;;;14.52;7.57;;;;;;;4.86;81.96;101996.91;4803775;29;20058;-68
2024/01/29 11:42:30;;;;;;;11.23;6.78;;;;;;;4.90;81.56;101996.03;4804774;29;20135;-68
2024/01/29 11:45:35;;;;;;;11.57;7.45;;;;;;;4.92;81.15;101982.22;4804724;29;20095;-67
2024/01/29 11:48:38;;;;;;;11.30;6.65;;;;;;;4.94;81.61;101981.31;4804702;29;20378;-68
2024/01/29 11:51:42;;;;;;;11.95;6.68;;;;;;;5.02;82.15;101976.09;4786573;30;20062;-68
2024/01/29 11:54:45;;;;;;;;;;;;;;;5.16;82.24;101973.41;4787140;30;20095;-67
2024/01/29 11:57:52;;;;;;;13.55;7.80;;;;;;;5.32;82.21;101967.25;4786411;30;19932;-68
2024/01/29 12:00:55;;;;;;;13.25;7.25;;;;;;;5.49;82.44;101956.75;4786848;30;20054;-68
2024/01/29 12:03:59;;;;;;;11.65;6.88;;;;;;;5.67;82.53;101956.56;4786311;30;20054;-67
2024/01/29 12:07:03;;;;;;;9.50;6.72;;;;;;;5.85;82.56;101949.50;4786612;30;20491;-67
2024/01/29 12:10:07;;;;;;;10.20;7.13;;;;;;;5.97;80.95;101952.03;4786265;30;20112;-68
2024/01/29 12:13:18;;;;;;;9.63;6.47;;;;;;;5.93;81.30;101950.31;4786260;30;20054;-68
2024/01/29 12:16:23;;;;;;;10.90;6.55;;;;;;;6.10;81.37;101945.81;4786415;30;20122;-68
2024/01/29 12:19:26;;;;;;;14.45;7.25;;;;;;;6.25;80.84;101948.25;4786031;30;20170;-69
2024/01/29 12:22:30;;;;;;;10.15;6.78;;;;;;;6.39;80.54;101939.41;4786136;30;20097;-69
2024/01/29 12:25:33;;;;;;;12.32;8.48;;;;;;;6.44;79.84;101940.19;4786339;30;20057;-68
2024/01/29 12:28:37;;;;;;;45.72;32.05;;;;;;;6.55;79.85;101934.88;4786452;30;20046;-80
2024/01/29 12:31:40;;;;;;;18.15;10.30;;;;;;;6.69;80.07;101941.59;4786145;30;20097;-67
2024/01/29 12:34:45;;;;;;;15.88;9.50;;;;;;;6.84;79.90;101937.09;4786063;30;20596;-68
2024/01/29 12:37:48;;;;;;;15.73;8.70;;;;;;;6.72;78.93;101944.16;4785896;30;20066;-68
2024/01/29 12:40:58;;;;;;;11.43;8.18;;;;;;;6.80;78.53;101940.63;4785941;30;20488;-66
2024/01/29 12:44:11;;;;;;;12.18;9.05;;;;;;;6.95;78.71;101936.03;4788001;30;20053;-66
2024/01/29 12:47:17;;;;;;;14.15;7.75;;;;;;;7.05;78.19;101934.19;4786336;30;20054;-66
2024/01/29 12:50:20;;;;;;;12.38;7.95;;;;;;;7.14;78.01;101930.56;4796247;29;20058;-66
2024/01/29 12:53:23;;;;;;;;;;;;;;;7.19;78.03;101933.97;4804360;29;20065;-66
2024/01/29 12:56:29;;;;;;;11.07;7.97;;;;;;;7.26;77.65;101919.97;4804178;29;20004;-66
2024/01/29 12:59:33;;;;;;;11.07;7.43;;;;;;;7.32;77.18;101919.00;4803675;29;20085;-65
2024/01/29 13:02:36;;;;;;;;;;;;;;;7.35;76.34;101917.22;4803479;29;20053;-66
2024/01/29 13:05:39;;;;;;;9.60;7.22;;;;;;;7.43;76.42;101917.06;4806662;29;19930;-66
2024/01/29 13:08:43;;;;;;;;;;;;;;;7.46;75.89;101915.28;4807710;29;20119;-67
2024/01/29 13:11:46;;;;;;;11.82;7.55;;;;;;;7.49;75.25;101922.19;4807115;29;20500;-66
2024/01/29 13:14:49;;;;;;;15.35;8.60;;;;;;;7.54;75.64;101909.97;4806966;29;20122;-66
2024/01/29 13:17:52;;;;;;;15.13;7.95;;;;;;;7.58;74.77;101909.00;4806884;29;20566;-67
2024/01/29 13:20:56;;;;;;;9.85;7.57;;;;;;;7.59;74.81;101908.09;4806851;29;20046;-67
2024/01/29 13:24:00;;;;;;;11.05;7.57;;;;;;;7.63;74.33;101912.41;4807010;29;20065;-68
2024/01/29 13:27:04;;;;;;;11.00;8.07;;;;;;;7.68;74.30;101913.16;4806840;29;20066;-67
2024/01/29 13:30:07;;;;;;;11.85;7.38;;;;;;;7.68;73.87;101901.88;4807177;29;20096;-66
2024/01/29 13:33:12;;;;;;;13.07;8.00;;;;;;;7.73;73.95;101904.44;4806896;29;20098;-67
2024/01/29 13:36:17;;;;;;;11.38;7.13;;;;;;;7.78;73.69;101905.19;4807063;29;20073;-67
2024/01/29 13:39:21;;;;;;;11.77;7.15;;;;;;;7.84;73.60;101903.31;4806822;29;20078;-67
2024/01/29 13:42:24;;;;;;;13.90;7.18;;;;;;;7.88;73.02;101909.31;4806969;29;20057;-67
2024/01/29 13:45:27;;;;;;;;;;;;;;;7.87;72.36;101907.63;4807115;29;20539;-68
2024/01/29 13:48:30;;;;;;;11.77;6.37;;;;;;;7.84;72.01;101907.69;4806794;29;19992;-69
2024/01/29 13:51:34;;;;;;;11.68;7.07;;;;;;;7.82;72.27;101909.47;4806638;29;20299;-69
2024/01/29 13:54:39;;;;;;;9.93;7.95;;;;;;;7.78;72.49;101907.78;4806715;29;20160;-67
2024/01/29 13:57:43;;;;;;;10.60;7.15;;;;;;;7.78;73.04;101905.19;4806577;29;20049;-68
2024/01/29 14:00:47;;;;;;;11.70;6.85;;;;;;;7.79;72.79;101907.78;4806267;29;20082;-67
2024/01/29 14:03:53;;;;;;;9.25;7.10;;;;;;;7.82;72.62;101904.25;4805713;29;20093;-67
2024/01/29 14:07:00;;;;;;;11.68;6.57;;;;;;;7.83;72.64;101900.75;4806455;29;20073;-67
2024/01/29 14:10:03;;;;;;;9.98;7.07;;;;;;;7.85;72.90;101905.06;4806101;29;20046;-67
2024/01/29 14:13:08;;;;;;;10.32;7.40;;;;;;;7.88;72.76;101909.31;4806353;29;20050;-67
2024/01/29 14:16:11;;;;;;;10.65;6.72;;;;;;;7.88;72.21;101910.22;4800974;29;20366;-67
2024/01/29 14:19:15;;;;;;;12.48;7.57;;;;;;;7.89;72.17;101908.47;4805967;29;20112;-65
2024/01/29 14:22:20;;;;;;;12.25;7.60;;;;;;;7.88;72.17;101919.75;4806094;29;20111;-67
2024/01/29 14:25:24;;;;;;;10.27;6.90;;;;;;;7.85;72.30;101906.81;4803386;29;20538;-67